Eleele, HI (96705)

1:26 PM HST on November 26, 2014 (GMT -1000)
Koloa Landing - Whaler's Cove | Change Station
CLOSE
Current Station
Personal Weather Station
Location: Koloa, HI
Elevation: 25 ft
Nearby Weather Stations

Elev 25 ft 21.88 °N, 159.47 °W | Updated 6 minutes ago

Partly Cloudy
Partly Cloudy
78.6 °F
Feels Like 80 °F
N
4.0
Wind Variable Wind from ESE
Gusts 7.4 mph

Today
High -- | Low -- °F
--% Chance of Precip.
Yesterday
High -- | Low -- °F
Precip. -- in
6:57 AM 5:54 PM
Waxing Crescent, 23% visible
Pressure 30.04 in
Visibility 10.0 miles
Clouds Few 5000 ft
Heat Index 80 °F
Dew Point 62 °F
Humidity 56%
Rainfall 0.00 in
Snow Depth Not available.
UV 6 out of 12
Pollen Not available.
Air Quality Not available.
Flu Activity Not available.
METAR PHBK 262256Z AUTO VRB03KT 10SM FEW050 27/16 A3003 RMK AO2 SLP170 T02720156

More Conditions Fewer Conditions

Pressure 30.04 in
Visibility 10.0 miles
Clouds Few 5000 ft
Heat Index 80 °F
Dew Point 62 °F
Humidity 56%
Rainfall 0.00 in
Snow Depth Not available.
UV 6 out of 12
Pollen Not available.
Air Quality Not available.
Flu Activity Not available.
METAR PHBK 262256Z AUTO VRB03KT 10SM FEW050 27/16 A3003 RMK AO2 SLP170 T02720156

More Conditions Fewer Conditions

10-Day Weather Forecast

Almanac

Astronomy

Nov. 26, 2014 Rise Set
Actual Time
Civil Twilight
Nautical Twilight
Astronomical Twilight
Moon
Length of Visible Light
Length of Day
Tomorrow will be .
, % of the Moon is Illuminated

Today's Extremes

State Highs State Lows

Community

WunderPhotos

Upload Photos

1,773,919 photos uploaded!

WunderBlogs® & News

Nearby

Air Quality

  Air Quality AQ Index Pollutant
Not available.

Snow Depth

Station Depth Elevation

Earthquake Activity

City Distance Mag. Time & Date
Minimum magnitude displayed is 2.5.

Coastal Water Temperatures

Place Temperature

Nearby Weather Stations